createdAt,value
2022-12-05T00:00:42.176Z,3.05
2022-12-05T00:01:42.283Z,3.05
2022-12-05T00:02:42.231Z,3.06
2022-12-05T00:03:42.199Z,3.08
2022-12-05T00:04:42.234Z,3.08
2022-12-05T00:05:42.117Z,3.06
2022-12-05T00:06:42.109Z,3.08
2022-12-05T00:07:42.143Z,3.08
2022-12-05T00:08:42.107Z,3.08
2022-12-05T00:09:42.329Z,3.06
2022-12-05T00:10:42.060Z,3.08
2022-12-05T00:11:42.763Z,3.08
2022-12-05T00:12:42.052Z,3.06
2022-12-05T00:13:42.030Z,3.06
2022-12-05T00:14:42.068Z,3.06
2022-12-05T00:15:42.008Z,3.06
2022-12-05T00:16:42.049Z,3.06
2022-12-05T00:17:41.991Z,3.06
2022-12-05T00:18:41.991Z,3.05
2022-12-05T00:19:41.979Z,3.05
2022-12-05T00:20:41.970Z,3.05
2022-12-05T00:21:41.950Z,3.05
2022-12-05T00:22:41.938Z,3.03
2022-12-05T00:23:41.919Z,3.03
2022-12-05T00:24:41.909Z,3.02
2022-12-05T00:25:41.911Z,3.00
2022-12-05T00:26:41.889Z,3.00
2022-12-05T00:27:41.869Z,2.99
2022-12-05T00:28:41.880Z,2.97
2022-12-05T00:29:41.850Z,2.99
2022-12-05T00:30:41.871Z,2.96
2022-12-05T00:31:41.944Z,2.95
2022-12-05T00:32:41.821Z,2.95
2022-12-05T00:33:41.811Z,2.93
2022-12-05T00:34:41.811Z,2.92
2022-12-05T00:35:41.810Z,2.90
2022-12-05T00:36:41.780Z,2.90
2022-12-05T00:37:41.767Z,2.89
2022-12-05T00:38:41.750Z,2.89
2022-12-05T00:39:41.742Z,2.87
2022-12-05T00:40:41.750Z,2.87
2022-12-05T00:41:41.727Z,2.89
2022-12-05T00:42:41.714Z,2.90
2022-12-05T00:43:41.704Z,2.89
2022-12-05T00:44:41.690Z,2.89
2022-12-05T00:45:41.956Z,2.89
2022-12-05T00:46:41.670Z,2.89
2022-12-05T00:47:41.650Z,2.89
2022-12-05T00:48:41.651Z,2.87
2022-12-05T00:49:41.639Z,2.85
2022-12-05T00:50:41.643Z,2.84
2022-12-05T00:51:41.611Z,2.85
2022-12-05T00:52:41.604Z,2.84
2022-12-05T00:53:41.597Z,2.85
2022-12-05T00:54:41.579Z,2.84
2022-12-05T00:55:41.602Z,2.84
2022-12-05T00:56:41.578Z,2.84
2022-12-05T00:57:41.541Z,2.84
2022-12-05T00:58:41.532Z,2.85
2022-12-05T00:59:41.513Z,2.85
2022-12-05T01:00:41.521Z,2.84
2022-12-05T01:01:41.568Z,2.84
2022-12-05T01:02:41.515Z,2.84
2022-12-05T01:03:41.481Z,2.84
2022-12-05T01:04:41.473Z,2.82
2022-12-05T01:05:41.473Z,2.81
2022-12-05T01:06:41.441Z,2.79
2022-12-05T01:07:41.463Z,2.78
2022-12-05T01:08:41.422Z,2.78
2022-12-05T01:09:41.407Z,2.74
2022-12-05T01:10:41.422Z,2.74
2022-12-05T01:11:41.806Z,2.74
2022-12-05T01:12:41.383Z,2.72
2022-12-05T01:13:41.375Z,2.72
2022-12-05T01:14:41.354Z,2.71
2022-12-05T01:15:41.365Z,2.71
2022-12-05T01:16:41.417Z,2.67
2022-12-05T01:17:41.333Z,2.67
2022-12-05T01:18:41.318Z,2.66
2022-12-05T01:19:41.312Z,2.66
2022-12-05T01:20:41.322Z,2.64
2022-12-05T01:21:41.287Z,2.63
2022-12-05T01:22:41.278Z,2.61
2022-12-05T01:23:41.275Z,2.59
2022-12-05T01:24:41.273Z,2.56
2022-12-05T01:25:41.269Z,2.54
2022-12-05T01:26:41.235Z,2.54
2022-12-05T01:27:41.213Z,2.53
2022-12-05T01:28:41.258Z,2.48
2022-12-05T01:29:41.185Z,2.49
2022-12-05T01:30:41.197Z,2.49
2022-12-05T01:31:41.227Z,2.48
2022-12-05T01:32:41.176Z,2.46
2022-12-05T01:33:41.145Z,2.46
2022-12-05T01:34:41.147Z,2.45
2022-12-05T01:35:41.136Z,2.45
2022-12-05T01:36:41.115Z,2.45
2022-12-05T01:37:41.104Z,2.43
2022-12-05T01:38:41.284Z,2.43
2022-12-05T01:39:41.076Z,2.45
2022-12-05T01:40:41.085Z,2.43
2022-12-05T01:41:41.058Z,2.43
2022-12-05T01:42:41.046Z,2.45
2022-12-05T01:43:41.046Z,2.43
2022-12-05T01:44:41.036Z,2.43
2022-12-05T01:45:41.053Z,2.41
2022-12-05T01:46:41.005Z,2.42
2022-12-05T01:47:40.996Z,2.41
2022-12-05T01:48:40.986Z,2.39
2022-12-05T01:49:40.974Z,2.41
2022-12-05T01:50:40.983Z,2.39
2022-12-05T01:51:40.957Z,2.41
2022-12-05T01:52:40.944Z,2.39
2022-12-05T01:53:40.947Z,2.39
2022-12-05T01:54:40.927Z,2.41
2022-12-05T01:55:40.926Z,2.38
2022-12-05T01:56:40.897Z,2.38
2022-12-05T01:57:40.887Z,2.36
2022-12-05T01:58:40.885Z,2.35
2022-12-05T01:59:40.926Z,2.34
2022-12-05T02:00:40.881Z,2.31
2022-12-05T02:01:40.928Z,2.30
2022-12-05T02:02:40.883Z,2.30
2022-12-05T02:03:40.836Z,2.30
2022-12-05T02:04:40.816Z,2.30
2022-12-05T02:05:40.805Z,2.30
2022-12-05T02:06:40.793Z,2.28
2022-12-05T02:07:40.846Z,2.25
2022-12-05T02:08:40.772Z,2.27
2022-12-05T02:09:40.757Z,2.25
2022-12-05T02:10:40.757Z,2.25
2022-12-05T02:11:40.737Z,2.24
2022-12-05T02:12:40.716Z,2.21
2022-12-05T02:13:40.717Z,2.20
2022-12-05T02:14:40.705Z,2.18
2022-12-05T02:15:40.723Z,2.17
2022-12-05T02:16:40.783Z,2.17
2022-12-05T02:17:40.707Z,2.14
2022-12-05T02:18:40.656Z,2.14
2022-12-05T02:19:40.656Z,2.10
2022-12-05T02:20:40.656Z,2.09
2022-12-05T02:21:40.637Z,2.07
2022-12-05T02:22:40.626Z,2.06
2022-12-05T02:23:40.616Z,2.05
2022-12-05T02:24:40.597Z,2.05
2022-12-05T02:25:40.613Z,2.06
2022-12-05T02:26:40.649Z,2.05
2022-12-05T02:27:40.569Z,2.05
2022-12-05T02:28:40.578Z,2.05
2022-12-05T02:29:40.637Z,2.05
2022-12-05T02:30:40.538Z,2.02
2022-12-05T02:31:40.577Z,1.99
2022-12-05T02:32:40.517Z,1.93
2022-12-05T02:33:40.519Z,1.91
2022-12-05T02:34:40.489Z,1.88
2022-12-05T02:35:40.507Z,1.87
2022-12-05T02:36:40.467Z,1.84
2022-12-05T02:37:40.470Z,1.83
2022-12-05T02:38:40.451Z,1.80
2022-12-05T02:39:40.440Z,1.77
2022-12-05T02:40:40.534Z,1.76
2022-12-05T02:41:40.421Z,1.72
2022-12-05T02:42:40.407Z,1.70
2022-12-05T02:43:40.408Z,1.69
2022-12-05T02:44:40.399Z,1.70
2022-12-05T02:45:40.417Z,1.66
2022-12-05T02:46:40.391Z,1.63
2022-12-05T02:47:40.359Z,1.60
2022-12-05T02:48:40.340Z,1.58
2022-12-05T02:49:40.339Z,1.55
2022-12-05T02:50:40.414Z,1.51
2022-12-05T02:51:40.329Z,1.50
2022-12-05T02:52:40.307Z,1.45
2022-12-05T02:53:40.299Z,1.42
2022-12-05T02:54:40.279Z,1.40
2022-12-05T02:55:40.279Z,1.37
2022-12-05T02:56:40.269Z,1.36
2022-12-05T02:57:40.259Z,1.34
2022-12-05T02:58:40.240Z,1.33
2022-12-05T02:59:40.229Z,1.34
2022-12-05T03:00:40.218Z,1.32
2022-12-05T03:01:40.274Z,1.29
2022-12-05T03:02:40.197Z,1.29
2022-12-05T03:03:40.180Z,1.27
2022-12-05T03:04:40.234Z,1.26
2022-12-05T03:05:40.176Z,1.26
2022-12-05T03:06:40.158Z,1.26
2022-12-05T03:07:40.182Z,1.23
2022-12-05T03:08:40.131Z,1.22
2022-12-05T03:09:40.119Z,1.22
2022-12-05T03:10:40.178Z,1.23
2022-12-05T03:11:40.121Z,1.18
2022-12-05T03:12:40.080Z,1.16
2022-12-05T03:13:40.119Z,1.18
2022-12-05T03:14:40.069Z,1.15
2022-12-05T03:15:40.059Z,1.16
2022-12-05T03:16:40.110Z,1.15
2022-12-05T03:17:40.040Z,1.15
2022-12-05T03:18:40.020Z,1.12
2022-12-05T03:19:40.026Z,1.12
2022-12-05T03:20:40.031Z,1.11
2022-12-05T03:21:40.005Z,1.11
2022-12-05T03:22:39.995Z,1.08
2022-12-05T03:23:39.974Z,1.09
2022-12-05T03:24:39.960Z,1.09
2022-12-05T03:25:39.959Z,1.06
2022-12-05T03:26:39.971Z,1.06
2022-12-05T03:27:39.940Z,1.04
2022-12-05T03:28:39.931Z,1.02
2022-12-05T03:29:39.910Z,1.02
2022-12-05T03:30:39.944Z,1.00
2022-12-05T03:31:39.911Z,0.98
2022-12-05T03:32:39.900Z,0.98
2022-12-05T03:33:39.868Z,0.98
2022-12-05T03:34:39.850Z,0.98
2022-12-05T03:35:39.850Z,0.96
2022-12-05T03:36:39.850Z,0.96
2022-12-05T03:37:39.863Z,0.96
2022-12-05T03:38:39.810Z,0.96
2022-12-05T03:39:39.811Z,0.96
2022-12-05T03:40:39.812Z,0.96
2022-12-05T03:41:39.790Z,0.94
2022-12-05T03:42:39.775Z,0.96
2022-12-05T03:43:39.793Z,0.96
2022-12-05T03:44:39.811Z,0.94
2022-12-05T03:45:39.780Z,0.94
2022-12-05T03:46:39.828Z,0.94
2022-12-05T03:47:39.726Z,0.94
2022-12-05T03:48:39.702Z,0.94
2022-12-05T03:49:39.702Z,0.93
2022-12-05T03:50:39.691Z,0.93
2022-12-05T03:51:39.693Z,0.91
2022-12-05T03:53:11.033Z,0.91
2022-12-05T03:53:40.660Z,0.90
2022-12-05T03:54:39.641Z,0.90
2022-12-05T03:55:39.646Z,0.88
2022-12-05T03:56:39.656Z,0.88
2022-12-05T03:57:39.633Z,0.88
2022-12-05T03:58:39.609Z,0.88
2022-12-05T03:59:39.592Z,0.87
2022-12-05T04:00:39.572Z,0.87
2022-12-05T04:01:39.670Z,0.87
2022-12-05T04:02:39.562Z,0.87
2022-12-05T04:03:40.071Z,0.87
2022-12-05T04:04:39.534Z,0.87
2022-12-05T04:05:39.530Z,0.87
2022-12-05T04:06:39.550Z,0.87
2022-12-05T04:07:39.605Z,0.87
2022-12-05T04:08:39.492Z,0.87
2022-12-05T04:09:39.495Z,0.88
2022-12-05T04:10:39.491Z,0.88
2022-12-05T04:11:39.469Z,0.87
2022-12-05T04:12:39.492Z,0.87
2022-12-05T04:13:39.443Z,0.86
2022-12-05T04:14:39.459Z,0.87
2022-12-05T04:15:39.455Z,0.87
2022-12-05T04:16:39.460Z,0.86
2022-12-05T04:17:39.421Z,0.87
2022-12-05T04:18:39.391Z,0.86
2022-12-05T04:19:39.383Z,0.86
2022-12-05T04:20:39.371Z,0.86
2022-12-05T04:21:39.363Z,0.87
2022-12-05T04:22:39.362Z,0.86
2022-12-05T04:23:42.378Z,0.86
2022-12-05T04:24:40.327Z,0.86
2022-12-05T04:25:39.313Z,0.86
2022-12-05T04:26:39.311Z,0.86
2022-12-05T04:27:39.303Z,0.86
2022-12-05T04:28:39.287Z,0.86
2022-12-05T04:29:39.281Z,0.84
2022-12-05T04:30:39.281Z,0.86
2022-12-05T04:31:39.336Z,0.84
2022-12-05T04:32:39.264Z,0.87
2022-12-05T04:33:39.224Z,0.86
2022-12-05T04:34:39.235Z,0.84
2022-12-05T04:35:39.243Z,0.86
2022-12-05T04:36:39.221Z,0.86
2022-12-05T04:37:39.204Z,0.87
2022-12-05T04:38:39.185Z,0.87
2022-12-05T04:39:39.182Z,0.87
2022-12-05T04:40:39.160Z,0.88
2022-12-05T04:41:39.143Z,0.87
2022-12-05T04:42:39.151Z,0.87
2022-12-05T04:43:39.254Z,0.87
2022-12-05T04:44:39.123Z,0.88
2022-12-05T04:45:39.104Z,0.87
2022-12-05T04:46:39.118Z,0.88
2022-12-05T04:47:39.084Z,0.87
2022-12-05T04:48:39.072Z,0.88
2022-12-05T04:49:39.063Z,0.87
2022-12-05T04:50:39.073Z,0.87
2022-12-05T04:51:39.048Z,0.87
2022-12-05T04:52:39.044Z,0.86
2022-12-05T04:53:39.044Z,0.87
2022-12-05T04:54:39.009Z,0.87
2022-12-05T04:55:38.994Z,0.86
2022-12-05T04:56:38.985Z,0.87
2022-12-05T04:57:38.984Z,0.87
2022-12-05T04:58:38.978Z,0.88
2022-12-05T04:59:38.964Z,0.87
2022-12-05T05:00:38.944Z,0.88
2022-12-05T05:01:39.026Z,0.88
2022-12-05T05:02:39.041Z,0.87
2022-12-05T05:03:38.907Z,0.87
2022-12-05T05:04:38.916Z,0.87
2022-12-05T05:05:38.924Z,0.87
2022-12-05T05:06:38.883Z,0.87
2022-12-05T05:07:38.948Z,0.87
2022-12-05T05:08:38.894Z,0.87
2022-12-05T05:09:38.843Z,0.87
2022-12-05T05:10:38.855Z,0.87
2022-12-05T05:11:38.839Z,0.87
2022-12-05T05:12:38.824Z,0.88
2022-12-05T05:13:38.818Z,0.87
2022-12-05T05:14:38.795Z,0.87
2022-12-05T05:15:38.883Z,0.87
2022-12-05T05:16:38.827Z,0.88
2022-12-05T05:17:38.802Z,0.87
2022-12-05T05:18:38.757Z,0.87
2022-12-05T05:19:38.754Z,0.87
2022-12-05T05:20:38.737Z,0.87
2022-12-05T05:21:38.733Z,0.87
2022-12-05T05:22:38.726Z,0.87
2022-12-05T05:23:38.704Z,0.88
2022-12-05T05:24:38.693Z,0.88
2022-12-05T05:25:38.685Z,0.88
2022-12-05T05:26:38.675Z,0.88
2022-12-05T05:27:38.673Z,0.88
2022-12-05T05:28:38.673Z,0.88
2022-12-05T05:29:38.658Z,0.88
2022-12-05T05:30:38.626Z,0.90
2022-12-05T05:31:38.686Z,0.90
2022-12-05T05:32:38.608Z,0.90
2022-12-05T05:33:38.607Z,0.91
2022-12-05T05:34:38.585Z,0.91
2022-12-05T05:35:38.606Z,0.91
2022-12-05T05:36:38.574Z,0.90
2022-12-05T05:37:38.555Z,0.91
2022-12-05T05:38:38.563Z,0.90
2022-12-05T05:39:38.535Z,0.90
2022-12-05T05:40:38.524Z,0.90
2022-12-05T05:41:38.514Z,0.91
2022-12-05T05:42:38.505Z,0.91
2022-12-05T05:43:38.516Z,0.91
2022-12-05T05:44:38.486Z,0.93
2022-12-05T05:45:38.465Z,0.91
2022-12-05T05:46:38.581Z,0.93
2022-12-05T05:47:38.457Z,0.93
2022-12-05T05:48:38.445Z,0.93
2022-12-05T05:49:38.454Z,0.93
2022-12-05T05:50:38.424Z,0.93
2022-12-05T05:51:38.414Z,0.93
2022-12-05T05:52:38.394Z,0.94
2022-12-05T05:53:38.407Z,0.91
2022-12-05T05:54:38.374Z,0.94
2022-12-05T05:55:38.396Z,0.94
2022-12-05T05:56:38.385Z,0.93
2022-12-05T05:57:38.345Z,0.94
2022-12-05T05:58:38.353Z,0.94
2022-12-05T05:59:38.325Z,0.96
2022-12-05T06:00:38.315Z,0.96
2022-12-05T06:01:38.296Z,0.97
2022-12-05T06:02:38.362Z,0.98
2022-12-05T06:03:38.526Z,0.98
2022-12-05T06:04:38.352Z,0.98
2022-12-05T06:05:38.257Z,0.97
2022-12-05T06:06:38.247Z,0.98
2022-12-05T06:07:38.292Z,0.98
2022-12-05T06:08:38.236Z,0.97
2022-12-05T06:09:38.216Z,0.98
2022-12-05T06:10:38.208Z,1.00
2022-12-05T06:11:38.197Z,0.97
2022-12-05T06:12:38.177Z,0.97
2022-12-05T06:13:38.187Z,0.96
2022-12-05T06:14:38.157Z,0.98
2022-12-05T06:15:38.150Z,0.96
2022-12-05T06:16:38.242Z,0.98
2022-12-05T06:17:38.142Z,0.98
2022-12-05T06:18:38.126Z,1.00
2022-12-05T06:19:38.111Z,1.02
2022-12-05T06:20:38.097Z,1.02
2022-12-05T06:21:38.088Z,1.02
2022-12-05T06:22:38.075Z,1.00
2022-12-05T06:23:38.108Z,1.00
2022-12-05T06:24:38.057Z,1.00
2022-12-05T06:25:38.146Z,1.02
2022-12-05T06:26:38.047Z,0.98
2022-12-05T06:27:38.027Z,1.00
2022-12-05T06:28:38.027Z,0.98
2022-12-05T06:29:38.009Z,1.00
2022-12-05T06:30:37.987Z,1.00
2022-12-05T06:31:38.062Z,1.02
2022-12-05T06:32:37.985Z,1.04
2022-12-05T06:33:37.969Z,1.02
2022-12-05T06:34:37.954Z,1.02
2022-12-05T06:35:37.947Z,1.04
2022-12-05T06:36:38.147Z,1.02
2022-12-05T06:37:38.275Z,1.02
2022-12-05T06:38:41.802Z,1.02
2022-12-05T06:39:37.900Z,1.04
2022-12-05T06:40:38.095Z,1.02
2022-12-05T06:41:37.907Z,1.00
2022-12-05T06:42:38.317Z,1.02
2022-12-05T06:43:37.899Z,1.04
2022-12-05T06:44:37.877Z,1.02
2022-12-05T06:45:37.913Z,1.05
2022-12-05T06:46:37.818Z,1.02
2022-12-05T06:47:37.818Z,1.04
2022-12-05T06:48:37.811Z,1.04
2022-12-05T06:49:38.360Z,1.04
2022-12-05T06:50:37.798Z,1.05
2022-12-05T06:51:37.791Z,1.05
2022-12-05T06:52:37.757Z,1.05
2022-12-05T06:53:37.780Z,1.05
2022-12-05T06:54:37.737Z,1.06
2022-12-05T06:55:37.730Z,1.06
2022-12-05T06:56:37.729Z,1.08
2022-12-05T06:57:37.709Z,1.08
2022-12-05T06:58:37.722Z,1.08
2022-12-05T06:59:37.691Z,1.08
2022-12-05T07:00:37.723Z,1.06
2022-12-05T07:01:37.727Z,1.08
2022-12-05T07:02:37.725Z,1.08
2022-12-05T07:03:37.657Z,1.08
2022-12-05T07:04:37.629Z,1.08
2022-12-05T07:05:37.627Z,1.08
2022-12-05T07:06:37.618Z,1.09
2022-12-05T07:07:37.682Z,1.09
2022-12-05T07:08:37.599Z,1.08
2022-12-05T07:09:37.590Z,1.09
2022-12-05T07:10:37.573Z,1.09
2022-12-05T07:11:37.559Z,1.11
2022-12-05T07:12:37.547Z,1.11
2022-12-05T07:13:37.574Z,1.12
2022-12-05T07:14:47.536Z,1.14
2022-12-05T07:15:38.510Z,1.14
2022-12-05T07:16:37.639Z,1.14
2022-12-05T07:17:37.537Z,1.14
2022-12-05T07:18:37.512Z,1.14
2022-12-05T07:19:37.484Z,1.15
2022-12-05T07:21:03.867Z,1.14
2022-12-05T07:21:38.450Z,1.16
2022-12-05T07:22:37.447Z,1.16
2022-12-05T07:23:37.454Z,1.15
2022-12-05T07:24:37.420Z,1.16
2022-12-05T07:25:37.420Z,1.16
2022-12-05T07:26:37.400Z,1.16
2022-12-05T07:27:37.402Z,1.20
2022-12-05T07:28:37.391Z,1.23
2022-12-05T07:29:37.380Z,1.24
2022-12-05T07:30:37.358Z,1.24
2022-12-05T07:31:37.392Z,1.24
2022-12-05T07:32:37.342Z,1.24
2022-12-05T07:33:37.330Z,1.26
2022-12-05T07:34:37.318Z,1.27
2022-12-05T07:35:37.309Z,1.30
2022-12-05T07:36:37.300Z,1.32
2022-12-05T07:37:37.289Z,1.32
2022-12-05T07:38:37.322Z,1.33
2022-12-05T07:39:37.273Z,1.33
2022-12-05T07:40:37.279Z,1.36
2022-12-05T07:41:37.242Z,1.34
2022-12-05T07:42:37.221Z,1.36
2022-12-05T07:43:37.241Z,1.36
2022-12-05T07:44:37.218Z,1.36
2022-12-05T07:45:37.257Z,1.37
2022-12-05T07:46:37.189Z,1.37
2022-12-05T07:47:37.221Z,1.37
2022-12-05T07:48:37.161Z,1.40
2022-12-05T07:49:37.172Z,1.40
2022-12-05T07:50:37.140Z,1.40
2022-12-05T07:51:37.130Z,1.40
2022-12-05T07:52:37.121Z,1.37
2022-12-05T07:53:37.127Z,1.40
2022-12-05T07:54:37.120Z,1.40
2022-12-05T07:55:37.102Z,1.40
2022-12-05T07:56:37.088Z,1.40
2022-12-05T07:57:37.071Z,1.40
2022-12-05T07:58:37.065Z,1.41
2022-12-05T07:59:37.060Z,1.40
2022-12-05T08:00:37.040Z,1.40
2022-12-05T08:01:37.114Z,1.41
2022-12-05T08:02:40.567Z,1.41
2022-12-05T08:03:37.019Z,1.42
2022-12-05T08:04:37.031Z,1.42
2022-12-05T08:05:36.995Z,1.42
2022-12-05T08:06:36.972Z,1.41
2022-12-05T08:07:36.992Z,1.41
2022-12-05T08:08:36.961Z,1.41
2022-12-05T08:09:36.951Z,1.42
2022-12-05T08:10:36.940Z,1.44
2022-12-05T08:11:36.930Z,1.44
2022-12-05T08:12:36.912Z,1.45
2022-12-05T08:13:36.903Z,1.45
2022-12-05T08:14:36.903Z,1.47
2022-12-05T08:15:36.880Z,1.47
2022-12-05T08:16:37.335Z,1.50
2022-12-05T08:17:36.864Z,1.50
2022-12-05T08:18:36.857Z,1.51
2022-12-05T08:19:36.843Z,1.51
2022-12-05T08:20:36.882Z,1.51
2022-12-05T08:21:36.840Z,1.52
2022-12-05T08:22:36.842Z,1.52
2022-12-05T08:23:36.809Z,1.52
2022-12-05T08:24:36.823Z,1.51
2022-12-05T08:25:36.800Z,1.52
2022-12-05T08:26:36.763Z,1.54
2022-12-05T08:27:36.752Z,1.55
2022-12-05T08:28:36.759Z,1.54
2022-12-05T08:29:36.750Z,1.54
2022-12-05T08:30:36.771Z,1.55
2022-12-05T08:31:36.715Z,1.54
2022-12-05T08:32:36.715Z,1.54
2022-12-05T08:33:36.692Z,1.54
2022-12-05T08:34:36.693Z,1.58
2022-12-05T08:35:36.674Z,1.59
2022-12-05T08:36:36.661Z,1.59
2022-12-05T08:37:36.655Z,1.59
2022-12-05T08:38:36.633Z,1.60
2022-12-05T08:39:38.688Z,1.63
2022-12-05T08:40:36.614Z,1.63
2022-12-05T08:41:36.644Z,1.63
2022-12-05T08:42:36.596Z,1.65
2022-12-05T08:43:36.594Z,1.68
2022-12-05T08:44:36.573Z,1.70
2022-12-05T08:45:36.564Z,1.70
2022-12-05T08:46:36.612Z,1.72
2022-12-05T08:47:36.550Z,1.72
2022-12-05T08:48:36.524Z,1.76
2022-12-05T08:49:36.543Z,1.73
2022-12-05T08:50:36.513Z,1.77
2022-12-05T08:51:36.761Z,1.76
2022-12-05T08:52:36.483Z,1.77
2022-12-05T08:53:42.454Z,1.79
2022-12-05T08:54:37.475Z,1.79
2022-12-05T08:55:36.454Z,1.81
2022-12-05T08:56:36.444Z,1.81
2022-12-05T08:57:36.435Z,1.83
2022-12-05T08:58:36.415Z,1.84
2022-12-05T08:59:36.435Z,1.86
2022-12-05T09:00:36.394Z,1.87
2022-12-05T09:01:36.435Z,1.87
2022-12-05T09:02:36.424Z,1.90
2022-12-05T09:03:36.363Z,1.88
2022-12-05T09:04:36.422Z,1.88
2022-12-05T09:05:36.355Z,1.90
2022-12-05T09:06:36.355Z,1.90
2022-12-05T09:07:36.346Z,1.91
2022-12-05T09:08:36.308Z,1.90
2022-12-05T09:09:36.324Z,1.93
2022-12-05T09:10:36.286Z,1.95
2022-12-05T09:11:36.280Z,1.95
2022-12-05T09:12:36.259Z,1.95
2022-12-05T09:13:36.260Z,1.95
2022-12-05T09:14:36.366Z,1.98
2022-12-05T09:15:36.267Z,1.99
2022-12-05T09:16:38.416Z,2.00
2022-12-05T09:17:36.215Z,2.00
2022-12-05T09:18:36.194Z,2.02
2022-12-05T09:19:36.207Z,2.05
2022-12-05T09:20:36.175Z,2.03
2022-12-05T09:21:36.172Z,2.05
2022-12-05T09:22:36.153Z,2.02
2022-12-05T09:23:36.147Z,2.03
2022-12-05T09:24:36.137Z,2.02
2022-12-05T09:25:36.196Z,2.03
2022-12-05T09:26:36.106Z,2.03
2022-12-05T09:27:36.107Z,2.03
2022-12-05T09:28:36.087Z,2.02
2022-12-05T09:29:36.085Z,2.02
2022-12-05T09:30:36.075Z,2.02
2022-12-05T09:31:36.112Z,1.99
2022-12-05T09:32:36.046Z,1.95
2022-12-05T09:33:36.038Z,1.91
2022-12-05T09:34:36.027Z,1.91
2022-12-05T09:35:36.017Z,1.90
2022-12-05T09:36:36.026Z,1.91
2022-12-05T09:37:40.108Z,1.91
2022-12-05T09:38:35.988Z,1.95
2022-12-05T09:39:35.984Z,1.93
2022-12-05T09:40:35.958Z,1.95
2022-12-05T09:41:36.022Z,1.98
2022-12-05T09:42:35.929Z,1.98
2022-12-05T09:43:35.969Z,1.99
2022-12-05T09:44:35.939Z,1.99
2022-12-05T09:45:35.898Z,1.99
2022-12-05T09:46:36.093Z,2.02
2022-12-05T09:47:35.888Z,2.02
2022-12-05T09:48:35.868Z,2.00
2022-12-05T09:49:35.869Z,1.99
2022-12-05T09:50:35.848Z,1.99
2022-12-05T09:51:35.838Z,2.03
2022-12-05T09:52:35.855Z,2.02
2022-12-05T09:53:35.856Z,2.03
2022-12-05T09:54:59.953Z,2.06
2022-12-05T09:55:40.890Z,2.06
2022-12-05T09:56:42.437Z,2.07
2022-12-05T09:57:35.769Z,2.09
2022-12-05T09:58:35.790Z,2.12
2022-12-05T09:59:35.758Z,2.14
2022-12-05T10:00:37.817Z,2.14
2022-12-05T10:01:35.792Z,2.16
2022-12-05T10:02:35.720Z,2.12
2022-12-05T10:03:35.706Z,2.10
2022-12-05T10:04:35.789Z,2.09
2022-12-05T10:05:35.689Z,2.09
2022-12-05T10:06:35.671Z,2.09
2022-12-05T10:07:35.713Z,2.09
2022-12-05T10:08:35.722Z,2.12
2022-12-05T10:09:36.343Z,2.12
2022-12-05T10:10:35.660Z,2.16
2022-12-05T10:11:35.620Z,2.17
2022-12-05T10:12:35.610Z,2.16
2022-12-05T10:13:35.600Z,2.18
2022-12-05T10:14:35.589Z,2.18
2022-12-05T10:15:35.640Z,2.20
2022-12-05T10:16:35.650Z,2.24
2022-12-05T10:17:35.551Z,2.27
2022-12-05T10:18:35.540Z,2.28
2022-12-05T10:19:35.724Z,2.34
2022-12-05T10:20:35.539Z,2.30
2022-12-05T10:21:35.512Z,2.30
2022-12-05T10:22:35.503Z,2.31
2022-12-05T10:23:56.461Z,2.30
2022-12-05T10:24:36.483Z,2.28
2022-12-05T10:25:35.485Z,2.27
2022-12-05T10:26:35.464Z,2.27
2022-12-05T10:27:39.783Z,2.27
2022-12-05T10:28:36.440Z,2.30
2022-12-05T10:29:35.432Z,2.31
2022-12-05T10:30:35.442Z,2.30
2022-12-05T10:31:35.470Z,2.28
2022-12-05T10:32:35.400Z,2.28
2022-12-05T10:33:35.412Z,2.30
2022-12-05T10:34:35.384Z,2.30
2022-12-05T10:35:35.373Z,2.34
2022-12-05T10:36:35.352Z,2.36
2022-12-05T10:37:35.340Z,2.38
2022-12-05T10:38:35.331Z,2.39
2022-12-05T10:39:35.311Z,2.38
2022-12-05T10:40:35.335Z,2.38
2022-12-05T10:41:35.300Z,2.38
2022-12-05T10:42:35.292Z,2.34
2022-12-05T10:43:35.272Z,2.31
2022-12-05T10:44:35.262Z,2.35
2022-12-05T10:45:35.262Z,2.34
2022-12-05T10:46:35.369Z,2.34
2022-12-05T10:47:35.223Z,2.38
2022-12-05T10:48:35.217Z,2.39
2022-12-05T10:49:35.240Z,2.38
2022-12-05T10:50:35.214Z,2.38
2022-12-05T10:51:37.759Z,2.35
2022-12-05T10:52:35.178Z,2.36
2022-12-05T10:53:35.153Z,2.38
2022-12-05T10:54:35.158Z,2.39
2022-12-05T10:55:35.148Z,2.38
2022-12-05T10:56:35.153Z,2.42
2022-12-05T10:57:35.113Z,2.43
2022-12-05T10:58:35.112Z,2.45
2022-12-05T10:59:35.115Z,2.43
2022-12-05T11:00:35.116Z,2.41
2022-12-05T11:01:35.122Z,2.41
2022-12-05T11:02:35.073Z,2.43
2022-12-05T11:03:35.053Z,2.46
2022-12-05T11:04:35.103Z,2.48
2022-12-05T11:05:46.720Z,2.46
2022-12-05T11:06:35.047Z,2.45
2022-12-05T11:07:35.105Z,2.42
2022-12-05T11:09:03.019Z,2.45
2022-12-05T11:09:35.997Z,2.48
2022-12-05T11:10:35.072Z,2.49
2022-12-05T11:11:34.981Z,2.49
2022-12-05T11:12:34.982Z,2.49
2022-12-05T11:13:34.955Z,2.49
2022-12-05T11:14:34.934Z,2.49
2022-12-05T11:15:34.918Z,2.49
2022-12-05T11:16:35.010Z,2.52
2022-12-05T11:17:34.902Z,2.54
2022-12-05T11:18:36.354Z,2.49
2022-12-05T11:19:34.905Z,2.46
2022-12-05T11:20:34.876Z,2.52
2022-12-05T11:21:34.863Z,2.53
2022-12-05T11:22:34.854Z,2.46
2022-12-05T11:23:34.884Z,2.46
2022-12-05T11:24:34.835Z,2.45
2022-12-05T11:25:34.813Z,2.48
2022-12-05T11:26:34.829Z,2.49
2022-12-05T11:27:34.803Z,2.49
2022-12-05T11:28:34.797Z,2.49
2022-12-05T11:29:34.765Z,2.56
2022-12-05T11:30:34.805Z,2.57
2022-12-05T11:31:34.863Z,2.54
2022-12-05T11:32:34.743Z,2.56
2022-12-05T11:33:34.732Z,2.59
2022-12-05T11:34:34.725Z,2.61
2022-12-05T11:35:34.718Z,2.66
2022-12-05T11:36:34.730Z,2.72
2022-12-05T11:37:34.686Z,2.74
2022-12-05T11:38:34.690Z,2.75
2022-12-05T11:39:34.656Z,2.77
2022-12-05T11:40:38.492Z,2.82
2022-12-05T11:41:34.644Z,2.84
2022-12-05T11:42:34.625Z,2.84
2022-12-05T11:43:34.620Z,2.82
2022-12-05T11:44:34.625Z,2.79
2022-12-05T11:45:34.596Z,2.78
2022-12-05T11:46:41.831Z,2.81
2022-12-05T11:47:34.598Z,2.84
2022-12-05T11:48:34.585Z,2.87
2022-12-05T11:49:34.555Z,2.90
2022-12-05T11:50:34.576Z,2.93
2022-12-05T11:51:34.536Z,2.95
2022-12-05T11:52:40.239Z,2.93
2022-12-05T11:53:35.514Z,2.93
2022-12-05T11:55:35.487Z,2.96
2022-12-05T11:56:34.548Z,2.93
2022-12-05T11:57:34.458Z,2.96
2022-12-05T11:58:34.458Z,2.93
2022-12-05T11:59:34.438Z,2.97
2022-12-05T12:00:34.436Z,2.97
2022-12-05T12:01:34.474Z,2.99
2022-12-05T12:02:34.499Z,2.95
2022-12-05T12:03:34.503Z,2.97
2022-12-05T12:04:34.401Z,3.00
2022-12-05T12:05:34.417Z,2.89
2022-12-05T12:06:34.379Z,2.85
2022-12-05T12:07:34.391Z,2.82
2022-12-05T12:08:34.382Z,2.84
2022-12-05T12:09:34.405Z,2.82
2022-12-05T12:10:34.327Z,2.84
2022-12-05T12:11:34.328Z,2.87
2022-12-05T12:12:34.299Z,2.92
2022-12-05T12:13:34.289Z,2.95
2022-12-05T12:14:34.298Z,2.95
2022-12-05T12:15:34.280Z,2.96
2022-12-05T12:16:34.314Z,2.97
2022-12-05T12:17:34.250Z,2.99
2022-12-05T12:18:34.249Z,3.02
2022-12-05T12:19:34.230Z,3.05
2022-12-05T12:20:34.219Z,3.02
2022-12-05T12:21:38.594Z,3.03
2022-12-05T12:22:34.212Z,3.06
2022-12-05T12:23:34.181Z,3.08
2022-12-05T12:24:34.178Z,3.10
2022-12-05T12:25:34.160Z,3.10
2022-12-05T12:26:34.171Z,3.10
2022-12-05T12:27:34.156Z,3.11
2022-12-05T12:28:34.131Z,3.11
2022-12-05T12:29:34.122Z,3.11
2022-12-05T12:30:34.112Z,3.11
2022-12-05T12:31:34.147Z,3.14
2022-12-05T12:32:34.091Z,3.14
2022-12-05T12:33:34.081Z,3.13
2022-12-05T12:34:34.062Z,3.08
2022-12-05T12:35:34.117Z,2.92
2022-12-05T12:36:34.050Z,2.97
2022-12-05T12:37:34.079Z,3.00
2022-12-05T12:38:34.019Z,3.03
2022-12-05T12:39:34.031Z,3.03
2022-12-05T12:40:34.002Z,3.05
2022-12-05T12:41:34.059Z,3.08
2022-12-05T12:42:33.971Z,3.06
2022-12-05T12:43:53.224Z,2.93
2022-12-05T12:44:34.952Z,2.87
2022-12-05T12:45:34.007Z,2.81
2022-12-05T12:46:33.992Z,2.82
2022-12-05T12:47:33.954Z,2.87
2022-12-05T12:48:33.912Z,2.87
2022-12-05T12:49:33.922Z,2.84
2022-12-05T12:50:36.628Z,2.85
2022-12-05T12:51:34.892Z,2.87
2022-12-05T12:52:33.864Z,2.90
2022-12-05T12:53:33.869Z,2.92
2022-12-05T12:55:02.056Z,2.87
2022-12-05T12:55:34.839Z,2.85
2022-12-05T12:56:33.864Z,2.84
2022-12-05T12:57:33.814Z,2.89
2022-12-05T12:58:33.804Z,2.92
2022-12-05T12:59:33.795Z,2.97
2022-12-05T13:00:33.774Z,2.96
2022-12-05T13:01:33.837Z,3.00
2022-12-05T13:02:33.831Z,3.02
2022-12-05T13:03:33.763Z,3.03
2022-12-05T13:04:33.741Z,3.08
2022-12-05T13:05:33.733Z,3.11
2022-12-05T13:06:33.745Z,3.17
2022-12-05T13:07:33.787Z,3.23
2022-12-05T13:08:33.692Z,3.29
2022-12-05T13:09:33.686Z,3.33
2022-12-05T13:10:33.665Z,3.42
2022-12-05T13:11:33.684Z,3.45
2022-12-05T13:12:33.668Z,3.50
2022-12-05T13:13:36.376Z,3.51
2022-12-05T13:14:33.625Z,3.50
2022-12-05T13:15:33.624Z,3.47
2022-12-05T13:16:33.636Z,3.45
2022-12-05T13:17:33.625Z,3.47
2022-12-05T13:18:33.586Z,3.47
2022-12-05T13:19:33.585Z,3.50